sensor_id;sensor_type;location;lat;lon;timestamp;P1;durP1;ratioP1;P2;durP2;ratioP2
11414;SDS011;5763;42.714;23.244;2023-02-28T00:00:09;14.82;;;10.82;;
11414;SDS011;5763;42.714;23.244;2023-02-28T00:02:38;15.90;;;11.15;;
11414;SDS011;5763;42.714;23.244;2023-02-28T00:05:07;15.65;;;11.52;;
11414;SDS011;5763;42.714;23.244;2023-02-28T00:07:36;14.30;;;10.57;;
11414;SDS011;5763;42.714;23.244;2023-02-28T00:10:03;15.23;;;11.13;;
11414;SDS011;5763;42.714;23.244;2023-02-28T00:12:32;12.95;;;10.38;;
11414;SDS011;5763;42.714;23.244;2023-02-28T00:14:59;12.50;;;10.35;;
11414;SDS011;5763;42.714;23.244;2023-02-28T00:17:26;16.30;;;11.23;;
11414;SDS011;5763;42.714;23.244;2023-02-28T00:19:53;16.10;;;10.88;;
11414;SDS011;5763;42.714;23.244;2023-02-28T00:22:21;15.23;;;11.32;;
11414;SDS011;5763;42.714;23.244;2023-02-28T00:24:48;15.05;;;10.90;;
11414;SDS011;5763;42.714;23.244;2023-02-28T00:27:15;16.17;;;10.65;;
11414;SDS011;5763;42.714;23.244;2023-02-28T00:29:41;13.07;;;10.82;;
11414;SDS011;5763;42.714;23.244;2023-02-28T00:32:08;16.13;;;11.52;;
11414;SDS011;5763;42.714;23.244;2023-02-28T00:34:35;13.52;;;10.25;;
11414;SDS011;5763;42.714;23.244;2023-02-28T00:37:03;14.18;;;10.70;;
11414;SDS011;5763;42.714;23.244;2023-02-28T00:39:32;14.02;;;10.05;;
11414;SDS011;5763;42.714;23.244;2023-02-28T00:42:00;13.18;;;10.20;;
11414;SDS011;5763;42.714;23.244;2023-02-28T00:44:27;14.85;;;10.65;;
11414;SDS011;5763;42.714;23.244;2023-02-28T00:46:54;14.48;;;10.43;;
11414;SDS011;5763;42.714;23.244;2023-02-28T00:49:21;12.07;;;9.65;;
11414;SDS011;5763;42.714;23.244;2023-02-28T00:51:48;11.43;;;8.45;;
11414;SDS011;5763;42.714;23.244;2023-02-28T00:54:15;11.13;;;8.43;;
11414;SDS011;5763;42.714;23.244;2023-02-28T00:56:43;11.00;;;8.30;;
11414;SDS011;5763;42.714;23.244;2023-02-28T00:59:11;10.35;;;8.35;;
11414;SDS011;5763;42.714;23.244;2023-02-28T01:01:37;10.88;;;8.45;;
11414;SDS011;5763;42.714;23.244;2023-02-28T01:04:04;10.98;;;8.55;;
11414;SDS011;5763;42.714;23.244;2023-02-28T01:06:31;13.82;;;8.80;;
11414;SDS011;5763;42.714;23.244;2023-02-28T01:08:57;12.00;;;8.65;;
11414;SDS011;5763;42.714;23.244;2023-02-28T01:11:25;11.00;;;8.38;;
11414;SDS011;5763;42.714;23.244;2023-02-28T01:13:53;13.73;;;9.63;;
11414;SDS011;5763;42.714;23.244;2023-02-28T01:16:20;11.48;;;8.63;;
11414;SDS011;5763;42.714;23.244;2023-02-28T01:18:47;12.63;;;10.07;;
11414;SDS011;5763;42.714;23.244;2023-02-28T01:21:15;14.07;;;10.35;;
11414;SDS011;5763;42.714;23.244;2023-02-28T01:23:43;13.68;;;10.13;;
11414;SDS011;5763;42.714;23.244;2023-02-28T01:26:10;11.48;;;9.73;;
11414;SDS011;5763;42.714;23.244;2023-02-28T01:28:39;12.02;;;9.07;;
11414;SDS011;5763;42.714;23.244;2023-02-28T01:31:08;13.35;;;9.50;;
11414;SDS011;5763;42.714;23.244;2023-02-28T01:33:35;14.02;;;9.30;;
11414;SDS011;5763;42.714;23.244;2023-02-28T01:36:03;14.20;;;8.88;;
11414;SDS011;5763;42.714;23.244;2023-02-28T01:38:31;14.65;;;9.57;;
11414;SDS011;5763;42.714;23.244;2023-02-28T01:40:59;14.20;;;9.30;;
11414;SDS011;5763;42.714;23.244;2023-02-28T01:43:28;12.80;;;8.98;;
11414;SDS011;5763;42.714;23.244;2023-02-28T01:46:16;12.88;;;9.55;;
11414;SDS011;5763;42.714;23.244;2023-02-28T01:48:46;11.10;;;8.73;;
11414;SDS011;5763;42.714;23.244;2023-02-28T01:51:18;14.00;;;9.57;;
11414;SDS011;5763;42.714;23.244;2023-02-28T01:53:49;13.65;;;9.20;;
11414;SDS011;5763;42.714;23.244;2023-02-28T01:56:19;14.90;;;10.07;;
11414;SDS011;5763;42.714;23.244;2023-02-28T01:58:48;14.27;;;9.10;;
11414;SDS011;5763;42.714;23.244;2023-02-28T02:01:18;16.58;;;9.30;;
11414;SDS011;5763;42.714;23.244;2023-02-28T02:03:47;14.80;;;9.88;;
11414;SDS011;5763;42.714;23.244;2023-02-28T02:06:20;14.55;;;9.93;;
11414;SDS011;5763;42.714;23.244;2023-02-28T02:08:47;12.70;;;9.23;;
11414;SDS011;5763;42.714;23.244;2023-02-28T02:11:14;14.55;;;10.40;;
11414;SDS011;5763;42.714;23.244;2023-02-28T02:13:51;15.57;;;10.15;;
11414;SDS011;5763;42.714;23.244;2023-02-28T02:16:39;15.95;;;10.85;;
11414;SDS011;5763;42.714;23.244;2023-02-28T02:19:25;13.80;;;10.07;;
11414;SDS011;5763;42.714;23.244;2023-02-28T02:25:11;17.48;;;11.48;;
11414;SDS011;5763;42.714;23.244;2023-02-28T02:34:18;20.15;;;12.80;;
11414;SDS011;5763;42.714;23.244;2023-02-28T02:37:07;24.63;;;13.98;;
11414;SDS011;5763;42.714;23.244;2023-02-28T02:39:41;19.88;;;13.00;;
11414;SDS011;5763;42.714;23.244;2023-02-28T02:42:16;20.38;;;12.68;;
11414;SDS011;5763;42.714;23.244;2023-02-28T02:44:49;19.40;;;12.55;;
11414;SDS011;5763;42.714;23.244;2023-02-28T02:47:22;20.40;;;13.10;;
11414;SDS011;5763;42.714;23.244;2023-02-28T02:49:55;24.10;;;14.25;;
11414;SDS011;5763;42.714;23.244;2023-02-28T02:52:25;23.98;;;13.65;;
11414;SDS011;5763;42.714;23.244;2023-02-28T02:54:59;19.48;;;12.25;;
11414;SDS011;5763;42.714;23.244;2023-02-28T02:57:29;24.20;;;13.38;;
11414;SDS011;5763;42.714;23.244;2023-02-28T03:00:02;28.83;;;13.73;;
11414;SDS011;5763;42.714;23.244;2023-02-28T03:02:32;19.92;;;12.27;;
11414;SDS011;5763;42.714;23.244;2023-02-28T03:05:04;21.40;;;13.32;;
11414;SDS011;5763;42.714;23.244;2023-02-28T03:07:35;19.13;;;12.20;;
11414;SDS011;5763;42.714;23.244;2023-02-28T03:10:02;24.58;;;13.13;;
11414;SDS011;5763;42.714;23.244;2023-02-28T03:12:31;24.45;;;13.30;;
11414;SDS011;5763;42.714;23.244;2023-02-28T03:15:05;23.27;;;12.80;;
11414;SDS011;5763;42.714;23.244;2023-02-28T03:17:51;22.67;;;13.25;;
11414;SDS011;5763;42.714;23.244;2023-02-28T03:20:35;21.42;;;12.10;;
11414;SDS011;5763;42.714;23.244;2023-02-28T03:23:12;19.75;;;11.30;;
11414;SDS011;5763;42.714;23.244;2023-02-28T03:25:46;23.25;;;12.32;;
11414;SDS011;5763;42.714;23.244;2023-02-28T03:28:24;24.30;;;12.93;;
11414;SDS011;5763;42.714;23.244;2023-02-28T03:30:59;21.48;;;12.85;;
11414;SDS011;5763;42.714;23.244;2023-02-28T03:33:30;22.67;;;13.18;;
11414;SDS011;5763;42.714;23.244;2023-02-28T03:36:04;24.67;;;13.52;;
11414;SDS011;5763;42.714;23.244;2023-02-28T03:38:38;22.13;;;13.82;;
11414;SDS011;5763;42.714;23.244;2023-02-28T03:41:12;23.23;;;13.27;;
11414;SDS011;5763;42.714;23.244;2023-02-28T03:43:44;24.13;;;13.85;;
11414;SDS011;5763;42.714;23.244;2023-02-28T03:46:16;26.58;;;13.48;;
11414;SDS011;5763;42.714;23.244;2023-02-28T03:48:48;25.52;;;13.90;;
11414;SDS011;5763;42.714;23.244;2023-02-28T03:51:21;21.63;;;12.90;;
11414;SDS011;5763;42.714;23.244;2023-02-28T03:53:50;21.45;;;12.77;;
11414;SDS011;5763;42.714;23.244;2023-02-28T03:56:20;25.33;;;13.43;;
11414;SDS011;5763;42.714;23.244;2023-02-28T03:58:53;23.75;;;13.65;;
11414;SDS011;5763;42.714;23.244;2023-02-28T04:01:23;19.35;;;12.88;;
11414;SDS011;5763;42.714;23.244;2023-02-28T04:03:52;20.30;;;11.98;;
11414;SDS011;5763;42.714;23.244;2023-02-28T04:06:22;24.83;;;14.13;;
11414;SDS011;5763;42.714;23.244;2023-02-28T04:08:49;25.38;;;13.73;;
11414;SDS011;5763;42.714;23.244;2023-02-28T04:11:18;24.63;;;14.63;;
11414;SDS011;5763;42.714;23.244;2023-02-28T04:13:48;27.17;;;16.35;;
11414;SDS011;5763;42.714;23.244;2023-02-28T04:16:15;28.08;;;15.65;;
11414;SDS011;5763;42.714;23.244;2023-02-28T04:18:42;31.63;;;16.65;;
11414;SDS011;5763;42.714;23.244;2023-02-28T04:21:09;25.45;;;15.88;;
11414;SDS011;5763;42.714;23.244;2023-02-28T04:23:37;27.25;;;16.95;;
11414;SDS011;5763;42.714;23.244;2023-02-28T04:26:04;28.02;;;16.80;;
11414;SDS011;5763;42.714;23.244;2023-02-28T04:28:31;27.10;;;16.65;;
11414;SDS011;5763;42.714;23.244;2023-02-28T04:30:59;25.00;;;15.95;;
11414;SDS011;5763;42.714;23.244;2023-02-28T04:33:28;26.40;;;15.73;;
11414;SDS011;5763;42.714;23.244;2023-02-28T04:35:59;25.23;;;15.82;;
11414;SDS011;5763;42.714;23.244;2023-02-28T04:38:27;25.65;;;15.70;;
11414;SDS011;5763;42.714;23.244;2023-02-28T04:40:57;27.60;;;16.02;;
11414;SDS011;5763;42.714;23.244;2023-02-28T04:43:25;23.35;;;15.00;;
11414;SDS011;5763;42.714;23.244;2023-02-28T04:45:52;25.02;;;14.63;;
11414;SDS011;5763;42.714;23.244;2023-02-28T04:48:21;23.33;;;15.48;;
11414;SDS011;5763;42.714;23.244;2023-02-28T04:50:48;22.67;;;14.80;;
11414;SDS011;5763;42.714;23.244;2023-02-28T04:53:15;24.65;;;14.85;;
11414;SDS011;5763;42.714;23.244;2023-02-28T04:55:42;19.17;;;13.85;;
11414;SDS011;5763;42.714;23.244;2023-02-28T04:58:10;21.80;;;14.10;;
11414;SDS011;5763;42.714;23.244;2023-02-28T05:00:37;20.63;;;13.82;;
11414;SDS011;5763;42.714;23.244;2023-02-28T05:03:03;19.83;;;12.75;;
11414;SDS011;5763;42.714;23.244;2023-02-28T05:05:30;21.77;;;13.30;;
11414;SDS011;5763;42.714;23.244;2023-02-28T05:07:57;17.48;;;11.70;;
11414;SDS011;5763;42.714;23.244;2023-02-28T05:10:24;19.60;;;12.30;;
11414;SDS011;5763;42.714;23.244;2023-02-28T05:12:51;18.88;;;11.85;;
11414;SDS011;5763;42.714;23.244;2023-02-28T05:15:20;19.48;;;12.73;;
11414;SDS011;5763;42.714;23.244;2023-02-28T05:17:47;19.80;;;12.20;;
11414;SDS011;5763;42.714;23.244;2023-02-28T05:20:14;21.90;;;13.40;;
11414;SDS011;5763;42.714;23.244;2023-02-28T05:22:41;19.95;;;12.45;;
11414;SDS011;5763;42.714;23.244;2023-02-28T05:25:08;21.10;;;13.13;;
11414;SDS011;5763;42.714;23.244;2023-02-28T05:27:38;19.83;;;13.10;;
11414;SDS011;5763;42.714;23.244;2023-02-28T05:30:06;22.33;;;13.38;;
11414;SDS011;5763;42.714;23.244;2023-02-28T05:32:36;21.55;;;13.73;;
11414;SDS011;5763;42.714;23.244;2023-02-28T05:35:03;21.67;;;14.52;;
11414;SDS011;5763;42.714;23.244;2023-02-28T05:37:31;24.70;;;13.90;;
11414;SDS011;5763;42.714;23.244;2023-02-28T05:39:57;21.38;;;13.82;;
11414;SDS011;5763;42.714;23.244;2023-02-28T05:42:24;22.50;;;14.05;;
11414;SDS011;5763;42.714;23.244;2023-02-28T05:44:51;23.77;;;14.63;;
11414;SDS011;5763;42.714;23.244;2023-02-28T05:47:18;26.40;;;14.95;;
11414;SDS011;5763;42.714;23.244;2023-02-28T05:49:46;22.77;;;14.25;;
11414;SDS011;5763;42.714;23.244;2023-02-28T05:52:12;24.20;;;13.98;;
11414;SDS011;5763;42.714;23.244;2023-02-28T05:54:39;21.25;;;13.52;;
11414;SDS011;5763;42.714;23.244;2023-02-28T05:57:06;21.23;;;14.00;;
11414;SDS011;5763;42.714;23.244;2023-02-28T05:59:33;26.27;;;15.55;;
11414;SDS011;5763;42.714;23.244;2023-02-28T06:02:04;23.45;;;14.40;;
11414;SDS011;5763;42.714;23.244;2023-02-28T06:04:31;23.13;;;14.77;;
11414;SDS011;5763;42.714;23.244;2023-02-28T06:06:59;26.80;;;16.05;;
11414;SDS011;5763;42.714;23.244;2023-02-28T06:09:26;27.27;;;16.60;;
11414;SDS011;5763;42.714;23.244;2023-02-28T06:11:54;24.80;;;17.10;;
11414;SDS011;5763;42.714;23.244;2023-02-28T06:14:20;24.80;;;15.23;;
11414;SDS011;5763;42.714;23.244;2023-02-28T06:16:47;24.80;;;16.63;;
11414;SDS011;5763;42.714;23.244;2023-02-28T06:19:14;26.35;;;16.88;;
11414;SDS011;5763;42.714;23.244;2023-02-28T06:21:41;27.23;;;16.55;;
11414;SDS011;5763;42.714;23.244;2023-02-28T06:24:09;23.92;;;15.73;;
11414;SDS011;5763;42.714;23.244;2023-02-28T06:26:36;29.38;;;16.60;;
11414;SDS011;5763;42.714;23.244;2023-02-28T06:29:03;26.95;;;17.25;;
11414;SDS011;5763;42.714;23.244;2023-02-28T06:31:30;27.58;;;16.63;;
11414;SDS011;5763;42.714;23.244;2023-02-28T06:33:57;24.08;;;16.60;;
11414;SDS011;5763;42.714;23.244;2023-02-28T06:36:23;25.73;;;17.08;;
11414;SDS011;5763;42.714;23.244;2023-02-28T06:38:50;26.42;;;16.27;;
11414;SDS011;5763;42.714;23.244;2023-02-28T06:41:21;27.45;;;17.15;;
11414;SDS011;5763;42.714;23.244;2023-02-28T06:43:48;28.90;;;17.35;;
11414;SDS011;5763;42.714;23.244;2023-02-28T06:46:15;25.92;;;15.73;;
11414;SDS011;5763;42.714;23.244;2023-02-28T06:48:42;28.65;;;16.45;;
11414;SDS011;5763;42.714;23.244;2023-02-28T06:51:10;23.83;;;15.30;;
11414;SDS011;5763;42.714;23.244;2023-02-28T06:53:39;27.45;;;16.27;;
11414;SDS011;5763;42.714;23.244;2023-02-28T06:56:07;27.50;;;16.88;;
11414;SDS011;5763;42.714;23.244;2023-02-28T06:58:37;28.55;;;17.10;;
11414;SDS011;5763;42.714;23.244;2023-02-28T07:01:04;24.85;;;16.65;;
11414;SDS011;5763;42.714;23.244;2023-02-28T07:03:31;26.05;;;16.77;;
11414;SDS011;5763;42.714;23.244;2023-02-28T07:05:59;25.45;;;16.42;;
11414;SDS011;5763;42.714;23.244;2023-02-28T07:08:26;26.13;;;16.73;;
11414;SDS011;5763;42.714;23.244;2023-02-28T07:10:52;29.38;;;18.17;;
11414;SDS011;5763;42.714;23.244;2023-02-28T07:13:20;27.88;;;18.60;;
11414;SDS011;5763;42.714;23.244;2023-02-28T07:15:54;28.63;;;18.85;;
11414;SDS011;5763;42.714;23.244;2023-02-28T07:18:22;27.45;;;18.67;;
11414;SDS011;5763;42.714;23.244;2023-02-28T07:20:48;29.77;;;18.80;;
11414;SDS011;5763;42.714;23.244;2023-02-28T07:23:15;34.65;;;19.60;;
11414;SDS011;5763;42.714;23.244;2023-02-28T07:25:42;28.08;;;18.33;;
11414;SDS011;5763;42.714;23.244;2023-02-28T07:28:10;28.73;;;18.48;;
11414;SDS011;5763;42.714;23.244;2023-02-28T07:30:38;25.70;;;16.60;;
11414;SDS011;5763;42.714;23.244;2023-02-28T07:33:06;31.33;;;18.00;;
11414;SDS011;5763;42.714;23.244;2023-02-28T07:35:33;29.40;;;18.55;;
11414;SDS011;5763;42.714;23.244;2023-02-28T07:38:00;29.27;;;18.17;;
11414;SDS011;5763;42.714;23.244;2023-02-28T07:40:28;30.70;;;18.55;;
11414;SDS011;5763;42.714;23.244;2023-02-28T07:42:54;29.98;;;18.02;;
11414;SDS011;5763;42.714;23.244;2023-02-28T07:45:21;28.80;;;18.13;;
11414;SDS011;5763;42.714;23.244;2023-02-28T07:47:48;30.67;;;18.92;;
11414;SDS011;5763;42.714;23.244;2023-02-28T07:52:44;32.67;;;19.42;;
11414;SDS011;5763;42.714;23.244;2023-02-28T07:55:10;35.97;;;20.50;;
11414;SDS011;5763;42.714;23.244;2023-02-28T07:57:39;34.70;;;21.25;;
11414;SDS011;5763;42.714;23.244;2023-02-28T08:00:07;34.97;;;22.27;;
11414;SDS011;5763;42.714;23.244;2023-02-28T08:02:35;33.00;;;20.05;;
11414;SDS011;5763;42.714;23.244;2023-02-28T08:05:03;36.00;;;22.75;;
11414;SDS011;5763;42.714;23.244;2023-02-28T08:07:31;36.60;;;23.25;;
11414;SDS011;5763;42.714;23.244;2023-02-28T08:09:58;35.75;;;22.55;;
11414;SDS011;5763;42.714;23.244;2023-02-28T08:12:26;35.83;;;22.15;;
11414;SDS011;5763;42.714;23.244;2023-02-28T08:14:53;43.95;;;24.92;;
11414;SDS011;5763;42.714;23.244;2023-02-28T08:17:19;41.40;;;25.70;;
11414;SDS011;5763;42.714;23.244;2023-02-28T08:19:46;45.97;;;26.30;;
11414;SDS011;5763;42.714;23.244;2023-02-28T08:22:13;40.17;;;26.35;;
11414;SDS011;5763;42.714;23.244;2023-02-28T08:24:41;40.83;;;24.48;;
11414;SDS011;5763;42.714;23.244;2023-02-28T08:27:08;39.28;;;23.67;;
11414;SDS011;5763;42.714;23.244;2023-02-28T08:29:36;34.53;;;22.25;;
11414;SDS011;5763;42.714;23.244;2023-02-28T08:32:03;38.00;;;21.90;;
11414;SDS011;5763;42.714;23.244;2023-02-28T08:34:30;32.72;;;20.70;;
11414;SDS011;5763;42.714;23.244;2023-02-28T08:36:57;33.00;;;19.67;;
11414;SDS011;5763;42.714;23.244;2023-02-28T08:39:24;31.50;;;19.73;;
11414;SDS011;5763;42.714;23.244;2023-02-28T08:41:52;28.95;;;18.52;;
11414;SDS011;5763;42.714;23.244;2023-02-28T08:44:19;32.38;;;18.55;;
11414;SDS011;5763;42.714;23.244;2023-02-28T08:46:46;34.72;;;19.75;;
11414;SDS011;5763;42.714;23.244;2023-02-28T08:49:12;31.42;;;19.17;;
11414;SDS011;5763;42.714;23.244;2023-02-28T08:51:39;34.13;;;21.25;;
11414;SDS011;5763;42.714;23.244;2023-02-28T08:54:07;32.03;;;19.75;;
11414;SDS011;5763;42.714;23.244;2023-02-28T08:56:37;35.70;;;21.42;;
11414;SDS011;5763;42.714;23.244;2023-02-28T08:59:06;37.25;;;21.58;;
11414;SDS011;5763;42.714;23.244;2023-02-28T09:01:32;34.85;;;21.25;;
11414;SDS011;5763;42.714;23.244;2023-02-28T09:03:59;32.28;;;19.55;;
11414;SDS011;5763;42.714;23.244;2023-02-28T09:06:27;31.02;;;21.10;;
11414;SDS011;5763;42.714;23.244;2023-02-28T09:08:55;31.02;;;20.00;;
11414;SDS011;5763;42.714;23.244;2023-02-28T09:11:24;29.13;;;19.52;;
11414;SDS011;5763;42.714;23.244;2023-02-28T09:13:51;31.25;;;19.27;;
11414;SDS011;5763;42.714;23.244;2023-02-28T09:16:19;29.30;;;18.77;;
11414;SDS011;5763;42.714;23.244;2023-02-28T09:18:46;29.30;;;19.23;;
11414;SDS011;5763;42.714;23.244;2023-02-28T09:21:14;30.45;;;19.48;;
11414;SDS011;5763;42.714;23.244;2023-02-28T09:23:42;33.47;;;19.90;;
11414;SDS011;5763;42.714;23.244;2023-02-28T09:26:12;32.28;;;19.20;;
11414;SDS011;5763;42.714;23.244;2023-02-28T09:28:40;35.92;;;19.00;;
11414;SDS011;5763;42.714;23.244;2023-02-28T09:31:10;34.65;;;19.85;;
11414;SDS011;5763;42.714;23.244;2023-02-28T09:33:40;31.20;;;20.17;;
11414;SDS011;5763;42.714;23.244;2023-02-28T09:36:07;31.65;;;21.73;;
11414;SDS011;5763;42.714;23.244;2023-02-28T09:38:34;31.27;;;20.48;;
11414;SDS011;5763;42.714;23.244;2023-02-28T09:41:02;33.70;;;21.42;;
11414;SDS011;5763;42.714;23.244;2023-02-28T09:43:37;35.13;;;21.80;;
11414;SDS011;5763;42.714;23.244;2023-02-28T09:46:08;31.33;;;20.90;;
11414;SDS011;5763;42.714;23.244;2023-02-28T09:48:44;30.40;;;21.02;;
11414;SDS011;5763;42.714;23.244;2023-02-28T09:51:15;33.67;;;20.83;;
11414;SDS011;5763;42.714;23.244;2023-02-28T09:53:56;36.00;;;22.88;;
11414;SDS011;5763;42.714;23.244;2023-02-28T09:56:24;32.83;;;21.77;;
11414;SDS011;5763;42.714;23.244;2023-02-28T09:58:55;32.95;;;22.38;;
11414;SDS011;5763;42.714;23.244;2023-02-28T10:01:27;29.92;;;20.85;;
11414;SDS011;5763;42.714;23.244;2023-02-28T10:04:03;33.30;;;21.05;;
11414;SDS011;5763;42.714;23.244;2023-02-28T10:06:38;32.00;;;19.83;;
11414;SDS011;5763;42.714;23.244;2023-02-28T10:09:11;32.00;;;20.05;;
11414;SDS011;5763;42.714;23.244;2023-02-28T10:11:41;27.60;;;19.75;;
11414;SDS011;5763;42.714;23.244;2023-02-28T10:14:11;29.35;;;20.17;;
11414;SDS011;5763;42.714;23.244;2023-02-28T10:16:42;30.10;;;19.52;;
11414;SDS011;5763;42.714;23.244;2023-02-28T10:19:19;33.50;;;20.20;;
11414;SDS011;5763;42.714;23.244;2023-02-28T10:21:50;27.63;;;19.25;;
11414;SDS011;5763;42.714;23.244;2023-02-28T10:24:26;30.95;;;20.83;;
11414;SDS011;5763;42.714;23.244;2023-02-28T10:26:58;28.73;;;20.20;;
11414;SDS011;5763;42.714;23.244;2023-02-28T10:29:27;27.25;;;19.73;;
11414;SDS011;5763;42.714;23.244;2023-02-28T10:31:58;27.05;;;19.50;;
11414;SDS011;5763;42.714;23.244;2023-02-28T10:34:30;29.85;;;20.40;;
11414;SDS011;5763;42.714;23.244;2023-02-28T10:36:56;27.98;;;20.15;;
11414;SDS011;5763;42.714;23.244;2023-02-28T10:39:39;30.70;;;20.40;;
11414;SDS011;5763;42.714;23.244;2023-02-28T10:42:18;28.85;;;20.20;;
11414;SDS011;5763;42.714;23.244;2023-02-28T10:44:47;26.85;;;18.33;;
11414;SDS011;5763;42.714;23.244;2023-02-28T10:47:14;29.27;;;17.02;;
11414;SDS011;5763;42.714;23.244;2023-02-28T10:49:48;24.00;;;15.90;;
11414;SDS011;5763;42.714;23.244;2023-02-28T10:52:32;23.55;;;15.00;;
11414;SDS011;5763;42.714;23.244;2023-02-28T10:55:13;16.73;;;10.43;;
11414;SDS011;5763;42.714;23.244;2023-02-28T10:57:42;15.88;;;9.32;;
11414;SDS011;5763;42.714;23.244;2023-02-28T11:00:13;16.08;;;9.25;;
11414;SDS011;5763;42.714;23.244;2023-02-28T11:02:43;18.20;;;10.07;;
11414;SDS011;5763;42.714;23.244;2023-02-28T11:05:25;16.42;;;9.68;;
11414;SDS011;5763;42.714;23.244;2023-02-28T11:07:54;14.20;;;10.00;;
11414;SDS011;5763;42.714;23.244;2023-02-28T11:10:24;16.83;;;10.00;;
11414;SDS011;5763;42.714;23.244;2023-02-28T11:12:54;18.25;;;9.57;;
11414;SDS011;5763;42.714;23.244;2023-02-28T11:15:23;18.33;;;9.85;;
11414;SDS011;5763;42.714;23.244;2023-02-28T11:17:54;18.17;;;10.13;;
11414;SDS011;5763;42.714;23.244;2023-02-28T11:20:26;15.73;;;9.20;;
11414;SDS011;5763;42.714;23.244;2023-02-28T11:22:55;17.35;;;9.50;;
11414;SDS011;5763;42.714;23.244;2023-02-28T11:25:24;18.83;;;9.68;;
11414;SDS011;5763;42.714;23.244;2023-02-28T11:27:53;16.85;;;10.00;;
11414;SDS011;5763;42.714;23.244;2023-02-28T11:30:27;18.55;;;9.93;;
11414;SDS011;5763;42.714;23.244;2023-02-28T11:35:50;17.42;;;10.65;;
11414;SDS011;5763;42.714;23.244;2023-02-28T11:38:18;15.88;;;10.13;;
11414;SDS011;5763;42.714;23.244;2023-02-28T11:40:46;18.23;;;10.85;;
11414;SDS011;5763;42.714;23.244;2023-02-28T11:43:22;17.48;;;10.77;;
11414;SDS011;5763;42.714;23.244;2023-02-28T11:46:07;16.42;;;9.57;;
11414;SDS011;5763;42.714;23.244;2023-02-28T11:48:44;20.30;;;9.85;;
11414;SDS011;5763;42.714;23.244;2023-02-28T11:51:21;18.40;;;10.18;;
11414;SDS011;5763;42.714;23.244;2023-02-28T11:53:56;17.23;;;9.75;;
11414;SDS011;5763;42.714;23.244;2023-02-28T11:56:46;21.42;;;10.73;;
11414;SDS011;5763;42.714;23.244;2023-02-28T11:59:24;16.77;;;9.57;;
11414;SDS011;5763;42.714;23.244;2023-02-28T12:02:10;17.20;;;9.93;;
11414;SDS011;5763;42.714;23.244;2023-02-28T12:04:52;13.80;;;9.52;;
11414;SDS011;5763;42.714;23.244;2023-02-28T12:07:28;20.65;;;9.50;;
11414;SDS011;5763;42.714;23.244;2023-02-28T12:10:05;19.75;;;10.80;;
11414;SDS011;5763;42.714;23.244;2023-02-28T12:12:47;17.38;;;10.23;;
11414;SDS011;5763;42.714;23.244;2023-02-28T12:15:34;16.55;;;9.68;;
11414;SDS011;5763;42.714;23.244;2023-02-28T12:21:04;18.35;;;10.57;;
11414;SDS011;5763;42.714;23.244;2023-02-28T12:23:45;19.83;;;9.95;;
11414;SDS011;5763;42.714;23.244;2023-02-28T12:26:22;18.55;;;10.13;;
11414;SDS011;5763;42.714;23.244;2023-02-28T12:28:59;15.77;;;9.63;;
11414;SDS011;5763;42.714;23.244;2023-02-28T12:31:31;16.42;;;9.68;;
11414;SDS011;5763;42.714;23.244;2023-02-28T12:34:03;20.63;;;9.82;;
11414;SDS011;5763;42.714;23.244;2023-02-28T12:36:33;17.48;;;8.30;;
11414;SDS011;5763;42.714;23.244;2023-02-28T12:39:04;13.90;;;8.35;;
11414;SDS011;5763;42.714;23.244;2023-02-28T12:41:36;16.48;;;8.40;;
11414;SDS011;5763;42.714;23.244;2023-02-28T12:44:07;14.93;;;9.35;;
11414;SDS011;5763;42.714;23.244;2023-02-28T12:46:41;18.70;;;8.82;;
11414;SDS011;5763;42.714;23.244;2023-02-28T12:49:11;16.15;;;9.23;;
11414;SDS011;5763;42.714;23.244;2023-02-28T12:51:41;14.75;;;8.80;;
11414;SDS011;5763;42.714;23.244;2023-02-28T12:54:14;21.25;;;9.43;;
11414;SDS011;5763;42.714;23.244;2023-02-28T12:56:52;19.73;;;9.18;;
11414;SDS011;5763;42.714;23.244;2023-02-28T12:59:27;13.82;;;8.60;;
11414;SDS011;5763;42.714;23.244;2023-02-28T13:05:10;19.33;;;8.80;;
11414;SDS011;5763;42.714;23.244;2023-02-28T13:08:01;15.68;;;8.55;;
11414;SDS011;5763;42.714;23.244;2023-02-28T13:10:42;17.30;;;8.48;;
11414;SDS011;5763;42.714;23.244;2023-02-28T13:13:17;15.52;;;7.90;;
11414;SDS011;5763;42.714;23.244;2023-02-28T13:15:59;21.00;;;8.27;;
11414;SDS011;5763;42.714;23.244;2023-02-28T13:18:32;21.05;;;9.20;;
11414;SDS011;5763;42.714;23.244;2023-02-28T13:21:03;18.48;;;8.32;;
11414;SDS011;5763;42.714;23.244;2023-02-28T13:23:55;17.73;;;8.90;;
11414;SDS011;5763;42.714;23.244;2023-02-28T13:29:33;19.85;;;8.98;;
11414;SDS011;5763;42.714;23.244;2023-02-28T13:32:28;15.30;;;8.23;;
11414;SDS011;5763;42.714;23.244;2023-02-28T13:38:12;15.48;;;7.55;;
11414;SDS011;5763;42.714;23.244;2023-02-28T13:40:43;15.60;;;8.65;;
11414;SDS011;5763;42.714;23.244;2023-02-28T13:43:10;19.42;;;9.35;;
11414;SDS011;5763;42.714;23.244;2023-02-28T13:45:38;14.18;;;9.02;;
11414;SDS011;5763;42.714;23.244;2023-02-28T13:48:15;17.58;;;8.65;;
11414;SDS011;5763;42.714;23.244;2023-02-28T13:50:44;14.95;;;8.07;;
11414;SDS011;5763;42.714;23.244;2023-02-28T13:56:34;15.55;;;8.27;;
11414;SDS011;5763;42.714;23.244;2023-02-28T13:59:16;15.05;;;8.18;;
11414;SDS011;5763;42.714;23.244;2023-02-28T14:01:55;17.50;;;7.60;;
11414;SDS011;5763;42.714;23.244;2023-02-28T14:04:49;11.93;;;6.97;;
11414;SDS011;5763;42.714;23.244;2023-02-28T14:07:25;15.38;;;7.57;;
11414;SDS011;5763;42.714;23.244;2023-02-28T14:09:58;15.82;;;8.40;;
11414;SDS011;5763;42.714;23.244;2023-02-28T14:18:19;16.33;;;7.63;;
11414;SDS011;5763;42.714;23.244;2023-02-28T14:20:52;11.77;;;7.20;;
11414;SDS011;5763;42.714;23.244;2023-02-28T14:23:25;16.48;;;7.72;;
11414;SDS011;5763;42.714;23.244;2023-02-28T14:26:03;18.33;;;7.75;;
11414;SDS011;5763;42.714;23.244;2023-02-28T14:28:45;14.95;;;7.68;;
11414;SDS011;5763;42.714;23.244;2023-02-28T14:31:28;12.70;;;7.80;;
11414;SDS011;5763;42.714;23.244;2023-02-28T14:34:12;13.85;;;7.85;;
11414;SDS011;5763;42.714;23.244;2023-02-28T14:36:50;14.80;;;7.63;;
11414;SDS011;5763;42.714;23.244;2023-02-28T14:39:20;14.63;;;8.10;;
11414;SDS011;5763;42.714;23.244;2023-02-28T14:41:50;13.65;;;7.50;;
11414;SDS011;5763;42.714;23.244;2023-02-28T14:44:18;15.38;;;7.85;;
11414;SDS011;5763;42.714;23.244;2023-02-28T14:46:48;13.00;;;7.40;;
11414;SDS011;5763;42.714;23.244;2023-02-28T14:49:20;17.20;;;7.72;;
11414;SDS011;5763;42.714;23.244;2023-02-28T14:51:49;12.55;;;7.75;;
11414;SDS011;5763;42.714;23.244;2023-02-28T14:54:27;13.75;;;7.32;;
11414;SDS011;5763;42.714;23.244;2023-02-28T14:56:55;15.75;;;7.82;;
11414;SDS011;5763;42.714;23.244;2023-02-28T14:59:26;12.25;;;7.43;;
11414;SDS011;5763;42.714;23.244;2023-02-28T15:02:15;15.20;;;7.70;;
11414;SDS011;5763;42.714;23.244;2023-02-28T15:04:44;18.75;;;10.20;;
11414;SDS011;5763;42.714;23.244;2023-02-28T15:07:19;11.88;;;8.13;;
11414;SDS011;5763;42.714;23.244;2023-02-28T15:10:06;14.57;;;8.38;;
11414;SDS011;5763;42.714;23.244;2023-02-28T15:12:34;15.93;;;8.27;;
11414;SDS011;5763;42.714;23.244;2023-02-28T15:15:01;13.40;;;7.43;;
11414;SDS011;5763;42.714;23.244;2023-02-28T15:17:28;14.30;;;8.27;;
11414;SDS011;5763;42.714;23.244;2023-02-28T15:19:57;13.05;;;7.78;;
11414;SDS011;5763;42.714;23.244;2023-02-28T15:22:26;15.35;;;8.13;;